Terminal Aerodrome Forecast
Issued by NWS

Home | Current Version | Previous Version | Text Only | Print | Product List | Glossary Off
Versions: 1 2 3 4 5 6 7 8 9 10 11 12 13 14 15 16 17 18 19

787
FTUS43 KOAX 211720
TAFCDR
TAF
KCDR 211720Z 2118/2218 16017KT P6SM BKN020 BKN045
     FM212100 16021G29KT P6SM VCTS SCT020 BKN040CB
     FM220600 16022G30KT P6SM BKN020
     FM220800 18014KT P6SM BKN008
     FM221400 25007KT P6SM SCT140=

USA.gov is the U.S. government's official web portal to all federal, state and local government web resources and services.